createdAt,value
2024-03-16T00:00:54.703Z,9.34
2024-03-16T00:02:56.490Z,9.26
2024-03-16T00:04:58.186Z,9.39
2024-03-16T00:06:59.954Z,9.31
2024-03-16T00:09:01.688Z,9.31
2024-03-16T00:11:03.503Z,9.32
2024-03-16T00:13:05.323Z,9.27
2024-03-16T00:15:07.309Z,9.26
2024-03-16T00:17:09.000Z,9.23
2024-03-16T00:19:10.742Z,9.24
2024-03-16T00:21:12.468Z,9.25
2024-03-16T00:23:14.153Z,9.22
2024-03-16T00:25:16.079Z,9.10
2024-03-16T00:27:17.840Z,9.00
2024-03-16T00:29:19.509Z,9.03
2024-03-16T00:31:21.222Z,8.92
2024-03-16T00:33:23.003Z,9.03
2024-03-16T00:35:24.803Z,9.06
2024-03-16T00:37:26.475Z,8.98
2024-03-16T00:39:28.170Z,9.06
2024-03-16T00:41:29.913Z,8.92
2024-03-16T00:43:31.625Z,9.00
2024-03-16T00:45:33.444Z,8.93
2024-03-16T00:47:35.199Z,9.00
2024-03-16T00:49:36.853Z,8.92
2024-03-16T00:51:38.580Z,8.94
2024-03-16T00:53:40.325Z,8.97
2024-03-16T00:55:42.016Z,8.85
2024-03-16T00:57:43.823Z,8.80
2024-03-16T00:59:45.514Z,8.80
2024-03-16T01:01:47.215Z,8.74
2024-03-16T01:03:48.884Z,8.75
2024-03-16T01:05:52.025Z,8.66
2024-03-16T01:07:53.735Z,8.54
2024-03-16T01:09:55.421Z,8.65
2024-03-16T01:11:57.131Z,8.72
2024-03-16T01:13:58.813Z,8.66
2024-03-16T01:16:00.548Z,8.74
2024-03-16T01:18:02.307Z,8.69
2024-03-16T01:20:04.234Z,8.70
2024-03-16T01:22:06.025Z,8.72
2024-03-16T01:24:07.717Z,8.63
2024-03-16T01:26:09.363Z,8.62
2024-03-16T01:28:11.109Z,8.62
2024-03-16T01:30:12.857Z,8.63
2024-03-16T01:32:14.568Z,8.59
2024-03-16T01:34:16.272Z,8.55
2024-03-16T01:36:17.962Z,8.65
2024-03-16T01:38:19.611Z,8.62
2024-03-16T01:40:21.269Z,8.63
2024-03-16T01:42:22.960Z,8.74
2024-03-16T01:44:24.605Z,8.68
2024-03-16T01:46:26.289Z,8.66
2024-03-16T01:48:27.990Z,8.75
2024-03-16T01:50:29.655Z,8.64
2024-03-16T01:52:31.305Z,8.57
2024-03-16T01:54:33.068Z,8.69
2024-03-16T01:56:34.730Z,8.64
2024-03-16T01:58:36.855Z,8.63
2024-03-16T02:00:38.661Z,8.48
2024-03-16T02:02:40.610Z,8.46
2024-03-16T02:04:42.413Z,8.50
2024-03-16T02:06:44.102Z,8.41
2024-03-16T02:08:45.742Z,8.51
2024-03-16T02:10:47.495Z,8.51
2024-03-16T02:12:49.358Z,8.46
2024-03-16T02:14:51.041Z,8.58
2024-03-16T02:16:52.704Z,8.62
2024-03-16T02:18:54.377Z,8.55
2024-03-16T02:20:56.032Z,8.49
2024-03-16T02:22:57.735Z,8.49
2024-03-16T02:24:59.458Z,8.52
2024-03-16T02:27:01.224Z,8.63
2024-03-16T02:29:02.865Z,8.59
2024-03-16T02:31:04.616Z,8.66
2024-03-16T02:33:06.359Z,8.59
2024-03-16T02:35:08.172Z,8.54
2024-03-16T02:37:09.925Z,8.63
2024-03-16T02:39:11.649Z,8.49
2024-03-16T02:41:13.510Z,8.62
2024-03-16T02:43:15.198Z,8.63
2024-03-16T02:45:16.874Z,8.68
2024-03-16T02:47:18.554Z,8.61
2024-03-16T02:49:20.188Z,8.55
2024-03-16T02:51:21.872Z,8.55
2024-03-16T02:53:23.579Z,8.57
2024-03-16T02:55:25.223Z,8.63
2024-03-16T02:57:26.960Z,8.61
2024-03-16T02:59:28.627Z,8.55
2024-03-16T03:01:30.432Z,8.60
2024-03-16T03:03:32.140Z,8.65
2024-03-16T03:05:33.847Z,8.59
2024-03-16T03:07:35.511Z,8.65
2024-03-16T03:09:37.232Z,8.62
2024-03-16T03:11:39.312Z,8.66
2024-03-16T03:13:41.657Z,8.60
2024-03-16T03:15:43.388Z,8.46
2024-03-16T03:17:45.105Z,8.58
2024-03-16T03:19:46.774Z,8.61
2024-03-16T03:21:48.462Z,8.60
2024-03-16T03:23:50.214Z,8.49
2024-03-16T03:25:51.855Z,8.55
2024-03-16T03:27:53.561Z,8.50
2024-03-16T03:29:55.621Z,8.55
2024-03-16T03:31:57.355Z,8.53
2024-03-16T03:33:59.098Z,8.37
2024-03-16T03:36:00.778Z,8.44
2024-03-16T03:38:03.090Z,8.49
2024-03-16T03:40:05.265Z,8.50
2024-03-16T03:42:07.130Z,8.48
2024-03-16T03:44:08.777Z,8.51
2024-03-16T03:46:10.477Z,8.50
2024-03-16T03:48:12.270Z,8.61
2024-03-16T03:50:13.953Z,8.61
2024-03-16T03:52:15.719Z,8.52
2024-03-16T03:54:17.490Z,8.52
2024-03-16T03:56:20.353Z,8.53
2024-03-16T03:58:22.078Z,8.50
2024-03-16T04:00:23.907Z,8.46
2024-03-16T04:02:25.555Z,8.53
2024-03-16T04:04:27.290Z,8.50
2024-03-16T04:06:29.011Z,8.46
2024-03-16T04:08:30.739Z,8.53
2024-03-16T04:10:32.414Z,8.48
2024-03-16T04:12:34.196Z,8.55
2024-03-16T04:14:35.866Z,8.54
2024-03-16T04:16:37.578Z,8.53
2024-03-16T04:18:39.302Z,8.48
2024-03-16T04:20:41.039Z,8.37
2024-03-16T04:22:42.721Z,8.48
2024-03-16T04:24:44.423Z,8.40
2024-03-16T04:26:46.168Z,8.52
2024-03-16T04:28:47.833Z,8.48
2024-03-16T04:30:49.501Z,8.55
2024-03-16T04:32:51.203Z,8.04
2024-03-16T04:34:52.890Z,7.48
2024-03-16T04:36:54.575Z,7.39
2024-03-16T04:38:56.325Z,7.53
2024-03-16T04:40:58.013Z,7.69
2024-03-16T04:42:59.664Z,7.75
2024-03-16T04:45:01.378Z,7.93
2024-03-16T04:47:03.134Z,7.91
2024-03-16T04:49:04.980Z,8.00
2024-03-16T04:51:06.724Z,8.03
2024-03-16T04:53:08.385Z,8.12
2024-03-16T04:55:10.145Z,8.14
2024-03-16T04:57:12.008Z,8.16
2024-03-16T04:59:13.660Z,8.23
2024-03-16T05:01:15.384Z,8.24
2024-03-16T05:03:17.107Z,8.28
2024-03-16T05:05:18.751Z,8.29
2024-03-16T05:07:20.437Z,8.28
2024-03-16T05:09:22.143Z,8.07
2024-03-16T05:11:23.887Z,8.12
2024-03-16T05:13:25.586Z,8.16
2024-03-16T05:15:27.281Z,8.21
2024-03-16T05:17:28.991Z,8.15
2024-03-16T05:19:30.737Z,8.18
2024-03-16T05:21:32.419Z,8.10
2024-03-16T05:23:34.097Z,8.18
2024-03-16T05:25:35.909Z,8.22
2024-03-16T05:27:37.645Z,8.32
2024-03-16T05:29:39.414Z,8.13
2024-03-16T05:31:41.083Z,8.33
2024-03-16T05:33:42.755Z,8.31
2024-03-16T05:35:44.438Z,8.26
2024-03-16T05:37:46.093Z,8.29
2024-03-16T05:39:47.722Z,8.43
2024-03-16T05:41:49.515Z,8.48
2024-03-16T05:43:51.240Z,8.48
2024-03-16T05:45:52.969Z,8.50
2024-03-16T05:47:54.720Z,8.51
2024-03-16T05:49:56.413Z,8.57
2024-03-16T05:51:58.102Z,8.48
2024-03-16T05:53:59.791Z,8.55
2024-03-16T05:56:01.436Z,8.57
2024-03-16T05:58:03.163Z,8.57
2024-03-16T06:00:05.444Z,8.48
2024-03-16T06:02:07.185Z,8.48
2024-03-16T06:04:08.995Z,8.49
2024-03-16T06:06:10.717Z,8.55
2024-03-16T06:08:12.354Z,8.55
2024-03-16T06:10:14.158Z,8.52
2024-03-16T06:12:15.892Z,8.52
2024-03-16T06:14:17.557Z,8.60
2024-03-16T06:16:19.305Z,8.53
2024-03-16T06:18:20.988Z,8.53
2024-03-16T06:20:25.131Z,8.35
2024-03-16T06:22:26.968Z,8.49
2024-03-16T06:24:28.646Z,8.49
2024-03-16T06:26:30.411Z,8.52
2024-03-16T06:28:32.057Z,8.50
2024-03-16T06:30:33.783Z,8.52
2024-03-16T06:32:35.631Z,8.55
2024-03-16T06:34:37.405Z,8.57
2024-03-16T06:36:39.202Z,8.59
2024-03-16T06:38:40.889Z,8.69
2024-03-16T06:40:42.577Z,8.71
2024-03-16T06:42:44.409Z,8.72
2024-03-16T06:44:46.111Z,8.77
2024-03-16T06:46:47.769Z,8.77
2024-03-16T06:48:49.937Z,8.81
2024-03-16T06:50:51.921Z,8.85
2024-03-16T06:52:53.589Z,8.76
2024-03-16T06:54:55.319Z,8.72
2024-03-16T06:56:57.002Z,8.75
2024-03-16T06:58:58.696Z,8.79
2024-03-16T07:01:00.489Z,8.87
2024-03-16T07:03:02.162Z,8.90
2024-03-16T07:05:04.086Z,8.78
2024-03-16T07:07:05.767Z,8.83
2024-03-16T07:09:07.439Z,8.91
2024-03-16T07:11:09.098Z,8.81
2024-03-16T07:13:10.863Z,8.65
2024-03-16T07:15:12.550Z,8.81
2024-03-16T07:17:14.273Z,8.83
2024-03-16T07:19:16.079Z,8.76
2024-03-16T07:21:17.888Z,8.80
2024-03-16T07:23:19.585Z,8.74
2024-03-16T07:25:21.365Z,8.87
2024-03-16T07:27:23.092Z,8.98
2024-03-16T07:29:24.782Z,8.86
2024-03-16T07:31:26.617Z,8.88
2024-03-16T07:33:28.329Z,8.91
2024-03-16T07:35:29.974Z,8.98
2024-03-16T07:37:31.620Z,9.02
2024-03-16T07:39:33.297Z,9.00
2024-03-16T07:41:34.986Z,9.02
2024-03-16T07:43:36.642Z,9.01
2024-03-16T07:45:38.337Z,9.03
2024-03-16T07:47:40.022Z,9.19
2024-03-16T07:49:41.663Z,9.10
2024-03-16T07:51:43.349Z,9.19
2024-03-16T07:53:45.060Z,9.28
2024-03-16T07:55:46.701Z,9.18
2024-03-16T07:57:48.468Z,9.19
2024-03-16T07:59:50.187Z,9.23
2024-03-16T08:01:51.871Z,8.93
2024-03-16T08:03:53.616Z,9.01
2024-03-16T08:05:55.314Z,8.92
2024-03-16T08:07:56.976Z,8.87
2024-03-16T08:09:58.632Z,8.79
2024-03-16T08:12:00.363Z,8.64
2024-03-16T08:14:02.023Z,8.50
2024-03-16T08:16:04.083Z,8.45
2024-03-16T08:18:05.933Z,8.30
2024-03-16T08:20:08.190Z,8.16
2024-03-16T08:22:09.975Z,8.21
2024-03-16T08:24:11.734Z,8.26
2024-03-16T08:26:13.451Z,8.11
2024-03-16T08:28:15.222Z,8.29
2024-03-16T08:30:16.902Z,8.49
2024-03-16T08:32:18.599Z,8.60
2024-03-16T08:34:20.364Z,8.61
2024-03-16T08:36:22.121Z,8.73
2024-03-16T08:38:23.778Z,8.70
2024-03-16T08:40:25.518Z,8.90
2024-03-16T08:42:27.207Z,8.86
2024-03-16T08:44:28.911Z,9.07
2024-03-16T08:46:30.699Z,9.12
2024-03-16T08:48:32.596Z,9.18
2024-03-16T08:50:34.316Z,9.25
2024-03-16T08:52:38.297Z,9.29
2024-03-16T08:54:40.669Z,9.32
2024-03-16T08:56:42.448Z,9.20
2024-03-16T08:58:47.069Z,9.11
2024-03-16T09:00:49.270Z,9.01
2024-03-16T09:02:51.008Z,8.86
2024-03-16T09:04:52.802Z,8.87
2024-03-16T09:06:54.641Z,8.92
2024-03-16T09:08:56.438Z,8.71
2024-03-16T09:10:58.109Z,8.64
2024-03-16T09:12:59.799Z,8.60
2024-03-16T09:15:01.545Z,8.67
2024-03-16T09:20:02.860Z,8.91
2024-03-16T09:22:04.941Z,8.92
2024-03-16T09:24:07.011Z,8.92
2024-03-16T09:26:08.701Z,8.86
2024-03-16T09:28:10.431Z,8.97
2024-03-16T09:30:12.355Z,8.87
2024-03-16T09:32:14.230Z,9.01
2024-03-16T09:34:16.022Z,8.83
2024-03-16T09:36:17.729Z,8.92
2024-03-16T09:38:19.394Z,8.97
2024-03-16T09:40:21.211Z,9.23
2024-03-16T09:42:22.964Z,9.24
